Time,TemperatureF,DewpointF,PressureIn,WindDirection,WindDirectionDegrees,WindSpeedMPH,WindSpeedGustMPH,Humidity,HourlyPrecipIn,Conditions,Clouds,dailyrainin,SoftwareType,DateUTC
2014-07-13 08:02:00,69.2,63.1,29.89,WSW,257,7.0,7.0,81,0.00,,---,0.14,VWS V14.00,2014-07-13 14:02:00,
2014-07-13 08:03:00,69.1,62.7,29.89,WSW,256,7.0,7.0,80,0.00,,---,0.14,VWS V14.00,2014-07-13 14:03:00,
2014-07-13 08:07:00,69.0,62.9,29.89,WSW,238,4.0,8.0,81,0.00,,---,0.14,VWS V14.00,2014-07-13 14:07:00,
2014-07-13 08:09:00,69.0,62.9,29.89,WSW,242,9.0,9.0,81,0.00,,---,0.14,VWS V14.00,2014-07-13 14:09:00,
2014-07-13 08:15:00,68.9,62.8,29.89,WSW,255,6.0,8.0,81,0.00,,---,0.14,VWS V14.00,2014-07-13 14:15:00,
2014-07-13 08:21:00,68.9,63.2,29.89,WSW,248,5.0,8.0,82,0.00,,---,0.14,VWS V14.00,2014-07-13 14:21:00,
2014-07-13 08:27:00,69.0,63.3,29.89,WSW,251,7.0,8.0,82,0.00,,---,0.14,VWS V14.00,2014-07-13 14:27:00,
2014-07-13 08:31:00,69.3,63.9,29.89,SW,226,8.0,10.0,83,0.00,,---,0.14,VWS V14.00,2014-07-13 14:31:00,
2014-07-13 08:37:00,69.9,63.8,29.89,WSW,239,11.0,11.0,81,0.00,,---,0.14,VWS V14.00,2014-07-13 14:37:00,
2014-07-13 08:42:00,70.2,63.8,29.89,WSW,238,10.0,11.0,80,0.00,,---,0.14,VWS V14.00,2014-07-13 14:42:00,
2014-07-13 08:47:00,70.5,63.7,29.89,WSW,245,5.0,10.0,79,0.00,,---,0.14,VWS V14.00,2014-07-13 14:47:00,
2014-07-13 08:52:00,71.1,63.9,29.89,WSW,246,7.0,9.0,78,0.00,,---,0.14,VWS V14.00,2014-07-13 14:52:00,
2014-07-13 08:57:00,71.4,63.5,29.89,WSW,250,7.0,10.0,76,0.00,,---,0.14,VWS V14.00,2014-07-13 14:57:00,
2014-07-13 09:02:00,71.7,63.4,29.89,West,259,7.0,8.0,75,0.00,,---,0.14,VWS V14.00,2014-07-13 15:02:00,
2014-07-13 09:07:00,72.1,63.4,29.89,West,270,5.0,6.0,74,0.00,,---,0.14,VWS V14.00,2014-07-13 15:07:00,
2014-07-13 09:14:00,72.3,62.8,29.89,West,267,5.0,7.0,72,0.00,,---,0.14,VWS V14.00,2014-07-13 15:14:00,
2014-07-13 09:20:00,72.6,62.3,29.89,West,278,3.0,6.0,70,0.00,,---,0.14,VWS V14.00,2014-07-13 15:20:00,
2014-07-13 09:26:00,72.8,62.5,29.89,West,278,4.0,5.0,70,0.00,,---,0.14,VWS V14.00,2014-07-13 15:26:00,
2014-07-13 09:32:00,73.0,62.7,29.89,West,277,3.0,4.0,70,0.00,,---,0.14,VWS V14.00,2014-07-13 15:32:00,
2014-07-13 09:37:00,73.2,62.8,29.89,West,275,2.0,5.0,70,0.00,,---,0.14,VWS V14.00,2014-07-13 15:37:00,
2014-07-13 09:42:00,73.6,62.4,29.89,West,275,2.0,5.0,68,0.00,,---,0.14,VWS V14.00,2014-07-13 15:42:00,
2014-07-13 09:47:00,74.1,63.3,29.89,West,275,4.0,4.0,69,0.00,,---,0.14,VWS V14.00,2014-07-13 15:47:00,
2014-07-13 09:52:00,74.4,62.7,29.89,West,275,2.0,3.0,67,0.00,,---,0.14,VWS V14.00,2014-07-13 15:52:00,
2014-07-13 09:57:00,74.8,62.7,29.89,West,275,2.0,4.0,66,0.00,,---,0.14,VWS V14.00,2014-07-13 15:57:00,
2014-07-13 10:02:00,75.0,62.5,29.89,West,275,0.0,2.0,65,0.00,,---,0.14,VWS V14.00,2014-07-13 16:02:00,
2014-07-13 10:08:00,75.9,62.9,29.89,West,279,0.0,4.0,64,0.00,,---,0.14,VWS V14.00,2014-07-13 16:08:00,
2014-07-13 10:14:00,76.3,63.7,29.89,SE,143,2.0,4.0,65,0.00,,---,0.14,VWS V14.00,2014-07-13 16:14:00,
2014-07-13 10:20:00,76.4,63.8,29.89,ENE,63,0.0,3.0,65,0.00,,---,0.14,VWS V14.00,2014-07-13 16:20:00,
2014-07-13 10:26:00,76.5,63.0,29.89,NNE,15,1.0,5.0,63,0.00,,---,0.14,VWS V14.00,2014-07-13 16:26:00,
2014-07-13 10:32:00,76.7,63.2,29.89,NNE,16,0.0,4.0,63,0.00,,---,0.14,VWS V14.00,2014-07-13 16:32:00,
2014-07-13 10:37:00,77.2,63.6,29.89,ENE,71,3.0,5.0,63,0.00,,---,0.14,VWS V14.00,2014-07-13 16:37:00,
2014-07-13 10:42:00,77.0,63.5,29.89,NE,44,2.0,2.0,63,0.00,,---,0.14,VWS V14.00,2014-07-13 16:42:00,
2014-07-13 10:47:00,77.5,64.8,29.89,North,5,8.0,10.0,65,0.00,,---,0.14,VWS V14.00,2014-07-13 16:47:00,
2014-07-13 10:52:00,77.6,64.9,29.89,North,360,5.0,5.0,65,0.00,,---,0.14,VWS V14.00,2014-07-13 16:52:00,
2014-07-13 10:57:00,77.4,64.3,29.89,NE,44,5.0,6.0,64,0.00,,---,0.14,VWS V14.00,2014-07-13 16:57:00,
2014-07-13 11:02:00,77.6,64.0,29.89,NE,51,5.0,6.0,63,0.00,,---,0.14,VWS V14.00,2014-07-13 17:02:00,
2014-07-13 11:07:00,77.7,64.6,29.89,NNE,30,4.0,11.0,64,0.00,,---,0.14,VWS V14.00,2014-07-13 17:07:00,
2014-07-13 11:12:00,77.8,63.8,29.89,NNE,30,0.0,6.0,62,0.00,,---,0.14,VWS V14.00,2014-07-13 17:12:00,
2014-07-13 11:17:00,78.0,64.4,29.89,East,81,5.0,7.0,63,0.00,,---,0.14,VWS V14.00,2014-07-13 17:17:00,
2014-07-13 11:22:00,78.1,63.6,29.89,NNE,31,6.0,10.0,61,0.00,,---,0.14,VWS V14.00,2014-07-13 17:22:00,
2014-07-13 11:27:00,78.4,62.9,29.89,NNE,17,1.0,6.0,59,0.00,,---,0.14,VWS V14.00,2014-07-13 17:27:00,
2014-07-13 11:32:00,78.8,64.7,29.89,ENE,78,4.0,11.0,62,0.00,,---,0.14,VWS V14.00,2014-07-13 17:32:00,
2014-07-13 11:38:00,78.8,63.3,29.89,NE,49,0.0,3.0,59,0.00,,---,0.14,VWS V14.00,2014-07-13 17:38:00,
2014-07-13 11:44:00,78.8,63.8,29.89,East,87,3.0,7.0,60,0.00,,---,0.14,VWS V14.00,2014-07-13 17:44:00,
2014-07-13 11:51:00,79.0,63.0,29.89,ENE,69,2.0,7.0,58,0.00,,---,0.14,VWS V14.00,2014-07-13 17:51:00,
2014-07-13 11:57:00,79.1,63.6,29.89,NNE,13,3.0,5.0,59,0.00,,---,0.14,VWS V14.00,2014-07-13 17:57:00,
2014-07-13 12:02:00,79.2,63.7,29.89,ENE,66,2.0,5.0,59,0.00,,---,0.14,VWS V14.00,2014-07-13 18:02:00,
2014-07-13 12:07:00,79.0,63.5,29.89,ESE,105,8.0,11.0,59,0.00,,---,0.14,VWS V14.00,2014-07-13 18:07:00,
2014-07-13 12:12:00,78.8,64.2,29.89,East,89,6.0,9.0,61,0.00,,---,0.14,VWS V14.00,2014-07-13 18:12:00,
2014-07-13 12:17:00,79.7,64.1,29.89,ENE,62,9.0,11.0,59,0.00,,---,0.14,VWS V14.00,2014-07-13 18:17:00,
2014-07-13 12:22:00,79.7,63.6,29.89,NE,55,3.0,7.0,58,0.00,,---,0.14,VWS V14.00,2014-07-13 18:22:00,
2014-07-13 12:27:00,79.6,64.0,29.89,ESE,111,4.0,7.0,59,0.00,,---,0.14,VWS V14.00,2014-07-13 18:27:00,
2014-07-13 12:32:00,79.8,64.7,29.89,ENE,66,10.0,10.0,60,0.00,,---,0.14,VWS V14.00,2014-07-13 18:32:00,
2014-07-13 12:37:00,80.3,63.7,29.89,NE,52,4.0,9.0,57,0.00,,---,0.14,VWS V14.00,2014-07-13 18:37:00,
2014-07-13 12:42:00,80.4,65.3,29.89,NE,53,6.0,11.0,60,0.00,,---,0.14,VWS V14.00,2014-07-13 18:42:00,
2014-07-13 12:47:00,80.3,63.7,29.89,East,97,5.0,11.0,57,0.00,,---,0.14,VWS V14.00,2014-07-13 18:47:00,
2014-07-13 12:52:00,80.5,63.9,29.89,East,84,4.0,12.0,57,0.00,,---,0.14,VWS V14.00,2014-07-13 18:52:00,
2014-07-13 12:57:00,80.5,63.4,29.89,East,92,11.0,12.0,56,0.00,,---,0.14,VWS V14.00,2014-07-13 18:57:00,
2014-07-13 13:02:00,80.0,62.4,29.89,ENE,74,2.0,7.0,55,0.00,,---,0.14,VWS V14.00,2014-07-13 19:02:00,
2014-07-13 13:07:00,81.1,63.9,29.89,ENE,69,12.0,12.0,56,0.00,,---,0.14,VWS V14.00,2014-07-13 19:07:00,
2014-07-13 13:12:00,81.8,61.9,29.89,ENE,68,5.0,11.0,51,0.00,,---,0.14,VWS V14.00,2014-07-13 19:12:00,
2014-07-13 13:17:00,81.5,61.7,29.89,ENE,70,4.0,11.0,51,0.00,,---,0.14,VWS V14.00,2014-07-13 19:17:00,
2014-07-13 13:24:00,80.8,62.1,29.89,East,96,6.0,10.0,53,0.00,,---,0.14,VWS V14.00,2014-07-13 19:24:00,
2014-07-13 13:30:00,81.0,61.7,29.89,ENE,69,2.0,3.0,52,0.00,,---,0.14,VWS V14.00,2014-07-13 19:30:00,
2014-07-13 13:36:00,81.5,62.2,29.89,East,93,6.0,11.0,52,0.00,,---,0.14,VWS V14.00,2014-07-13 19:36:00,
2014-07-13 13:42:00,81.4,62.6,29.89,ENE,74,3.0,10.0,53,0.00,,---,0.14,VWS V14.00,2014-07-13 19:42:00,
2014-07-13 13:47:00,80.8,62.6,29.89,East,96,6.0,11.0,54,0.00,,---,0.14,VWS V14.00,2014-07-13 19:47:00,
2014-07-13 13:52:00,81.2,63.5,29.89,NE,36,6.0,10.0,55,0.00,,---,0.14,VWS V14.00,2014-07-13 19:52:00,
2014-07-13 13:57:00,81.6,61.2,29.89,SE,125,3.0,10.0,50,0.00,,---,0.14,VWS V14.00,2014-07-13 19:57:00,
2014-07-13 14:02:00,82.0,63.2,29.89,East,82,7.0,9.0,53,0.00,,---,0.14,VWS V14.00,2014-07-13 20:02:00,
2014-07-13 14:08:00,82.8,62.8,29.89,ENE,64,10.0,10.0,51,0.00,,---,0.14,VWS V14.00,2014-07-13 20:08:00,
2014-07-13 14:14:00,82.2,61.7,29.89,ESE,114,3.0,11.0,50,0.00,,---,0.14,VWS V14.00,2014-07-13 20:14:00,
2014-07-13 14:20:00,81.9,62.6,29.89,ENE,57,1.0,9.0,52,0.00,,---,0.14,VWS V14.00,2014-07-13 20:20:00,
2014-07-13 14:26:00,82.8,62.3,29.89,ENE,65,2.0,10.0,50,0.00,,---,0.14,VWS V14.00,2014-07-13 20:26:00,
2014-07-13 14:32:00,83.1,62.0,29.89,NE,50,5.0,10.0,49,0.00,,---,0.14,VWS V14.00,2014-07-13 20:32:00,
2014-07-13 14:37:00,82.0,62.1,29.89,SE,132,4.0,6.0,51,0.00,,---,0.14,VWS V14.00,2014-07-13 20:37:00,
2014-07-13 14:42:00,82.4,62.5,29.89,ESE,107,6.0,8.0,51,0.00,,---,0.14,VWS V14.00,2014-07-13 20:42:00,
2014-07-13 14:47:00,83.3,62.2,29.89,ENE,65,5.0,13.0,49,0.00,,---,0.14,VWS V14.00,2014-07-13 20:47:00,
2014-07-13 14:52:00,83.5,63.5,29.89,East,92,3.0,10.0,51,0.00,,---,0.14,VWS V14.00,2014-07-13 20:52:00,
2014-07-13 14:57:00,83.1,62.0,29.89,ENE,58,5.0,11.0,49,0.00,,---,0.14,VWS V14.00,2014-07-13 20:57:00,
2014-07-13 15:02:00,82.4,61.9,29.89,ENE,59,1.0,6.0,50,0.00,,---,0.14,VWS V14.00,2014-07-13 21:02:00,
2014-07-13 15:08:00,82.6,60.9,29.89,ENE,71,5.0,10.0,48,0.00,,---,0.14,VWS V14.00,2014-07-13 21:08:00,
2014-07-13 15:15:00,82.7,62.2,29.89,East,80,7.0,10.0,50,0.00,,---,0.14,VWS V14.00,2014-07-13 21:15:00,
2014-07-13 15:21:00,82.2,61.7,29.89,East,85,7.0,13.0,50,0.00,,---,0.14,VWS V14.00,2014-07-13 21:21:00,
2014-07-13 15:27:00,82.0,62.7,29.89,NE,55,4.0,9.0,52,0.00,,---,0.14,VWS V14.00,2014-07-13 21:27:00,
2014-07-13 15:32:00,82.7,62.8,29.89,ENE,61,8.0,11.0,51,0.00,,---,0.14,VWS V14.00,2014-07-13 21:32:00,
2014-07-13 15:37:00,83.7,63.1,29.89,ESE,115,3.0,10.0,50,0.00,,---,0.14,VWS V14.00,2014-07-13 21:37:00,
2014-07-13 15:42:00,83.4,62.3,29.89,NE,49,10.0,10.0,49,0.00,,---,0.14,VWS V14.00,2014-07-13 21:42:00,
2014-07-13 15:47:00,83.7,62.0,29.89,ENE,78,5.0,9.0,48,0.00,,---,0.14,VWS V14.00,2014-07-13 21:47:00,
2014-07-13 15:53:00,83.2,61.5,29.89,East,82,6.0,10.0,48,0.00,,---,0.14,VWS V14.00,2014-07-13 21:53:00,
2014-07-13 15:59:00,83.0,60.7,29.89,East,96,9.0,10.0,47,0.00,,---,0.14,VWS V14.00,2014-07-13 21:59:00,
2014-07-13 16:05:00,82.8,59.3,29.89,ENE,78,0.0,4.0,45,0.00,,---,0.14,VWS V14.00,2014-07-13 22:05:00,
2014-07-13 16:11:00,83.1,61.4,29.89,NE,43,6.0,7.0,48,0.00,,---,0.14,VWS V14.00,2014-07-13 22:11:00,
2014-07-13 16:17:00,83.0,60.7,29.89,East,88,4.0,10.0,47,0.00,,---,0.14,VWS V14.00,2014-07-13 22:17:00,
2014-07-13 16:22:00,83.1,60.2,29.89,ESE,102,8.0,10.0,46,0.00,,---,0.14,VWS V14.00,2014-07-13 22:22:00,
2014-07-13 16:27:00,83.3,61.0,29.89,East,92,5.0,10.0,47,0.00,,---,0.14,VWS V14.00,2014-07-13 22:27:00,
2014-07-13 16:33:00,83.1,59.6,29.89,East,84,2.0,8.0,45,0.00,,---,0.14,VWS V14.00,2014-07-13 22:33:00,
2014-07-13 16:40:00,83.4,60.5,29.89,East,82,5.0,11.0,46,0.00,,---,0.14,VWS V14.00,2014-07-13 22:40:00,
2014-07-13 16:46:00,83.0,60.1,29.89,ESE,117,4.0,7.0,46,0.00,,---,0.14,VWS V14.00,2014-07-13 22:46:00,
2014-07-13 16:52:00,83.2,60.3,29.89,ESE,106,0.0,5.0,46,0.00,,---,0.14,VWS V14.00,2014-07-13 22:52:00,
2014-07-13 16:57:00,82.9,59.4,29.89,SSE,150,6.0,10.0,45,0.00,,---,0.14,VWS V14.00,2014-07-13 22:57:00,
2014-07-13 17:04:00,83.1,59.6,29.89,ENE,72,2.0,7.0,45,0.00,,---,0.14,VWS V14.00,2014-07-13 23:04:00,
2014-07-13 17:10:00,83.7,60.7,29.89,ENE,61,3.0,6.0,46,0.00,,---,0.14,VWS V14.00,2014-07-13 23:10:00,
2014-07-13 17:16:00,83.6,61.3,29.89,ENE,62,4.0,6.0,47,0.00,,---,0.14,VWS V14.00,2014-07-13 23:16:00,
2014-07-13 17:22:00,84.1,61.1,29.89,ESE,119,6.0,8.0,46,0.00,,---,0.14,VWS V14.00,2014-07-13 23:22:00,
2014-07-13 17:27:00,83.6,60.7,29.89,ENE,71,4.0,9.0,46,0.00,,---,0.14,VWS V14.00,2014-07-13 23:27:00,
2014-07-13 17:32:00,83.5,59.9,29.89,East,101,3.0,6.0,45,0.00,,---,0.14,VWS V14.00,2014-07-13 23:32:00,
2014-07-13 17:37:00,83.4,59.8,29.89,ESE,111,4.0,9.0,45,0.00,,---,0.14,VWS V14.00,2014-07-13 23:37:00,
2014-07-13 17:44:00,83.5,59.9,29.89,ESE,115,9.0,9.0,45,0.00,,---,0.14,VWS V14.00,2014-07-13 23:44:00,
2014-07-13 17:50:00,83.2,59.7,29.89,East,88,5.0,8.0,45,0.00,,---,0.14,VWS V14.00,2014-07-13 23:50:00,
2014-07-13 17:56:00,82.6,59.8,29.89,ENE,76,7.0,7.0,46,0.00,,---,0.14,VWS V14.00,2014-07-13 23:56:00,
2014-07-13 18:02:00,82.1,59.9,29.89,East,99,3.0,7.0,47,0.00,,---,0.14,VWS V14.00,2014-07-14 00:02:00,
2014-07-13 18:07:00,81.9,60.3,29.89,ESE,108,4.0,8.0,48,0.00,,---,0.14,VWS V14.00,2014-07-14 00:07:00,
2014-07-13 18:12:00,81.8,60.8,29.89,ESE,106,4.0,7.0,49,0.00,,---,0.14,VWS V14.00,2014-07-14 00:12:00,
2014-07-13 18:17:00,81.8,60.2,29.89,ESE,105,4.0,7.0,48,0.00,,---,0.14,VWS V14.00,2014-07-14 00:17:00,
2014-07-13 18:22:00,81.6,60.0,29.89,ESE,115,6.0,9.0,48,0.00,,---,0.14,VWS V14.00,2014-07-14 00:22:00,
2014-07-13 18:29:00,81.4,59.8,29.89,ESE,123,7.0,9.0,48,0.00,,---,0.14,VWS V14.00,2014-07-14 00:29:00,
2014-07-13 18:35:00,81.4,59.8,29.89,SE,133,5.0,7.0,48,0.00,,---,0.14,VWS V14.00,2014-07-14 00:35:00,
2014-07-13 18:41:00,81.3,59.2,29.89,ESE,111,4.0,6.0,47,0.00,,---,0.14,VWS V14.00,2014-07-14 00:41:00,
2014-07-13 18:47:00,81.2,59.7,29.89,ESE,115,2.0,5.0,48,0.00,,---,0.14,VWS V14.00,2014-07-14 00:47:00,
2014-07-13 18:52:00,81.2,59.7,29.89,SE,133,4.0,6.0,48,0.00,,---,0.14,VWS V14.00,2014-07-14 00:52:00,
2014-07-13 18:58:00,81.1,60.2,29.89,ESE,106,4.0,7.0,49,0.00,,---,0.14,VWS V14.00,2014-07-14 00:58:00,
2014-07-13 19:03:00,80.8,59.9,29.89,ESE,107,7.0,7.0,49,0.00,,---,0.14,VWS V14.00,2014-07-14 01:03:00,
2014-07-13 19:09:00,80.8,59.9,29.89,ESE,114,6.0,9.0,49,0.00,,---,0.14,VWS V14.00,2014-07-14 01:09:00,
2014-07-13 19:15:00,80.7,59.8,29.89,ESE,105,6.0,9.0,49,0.00,,---,0.14,VWS V14.00,2014-07-14 01:15:00,
2014-07-13 19:21:00,80.6,60.3,29.89,SE,132,4.0,7.0,50,0.00,,---,0.14,VWS V14.00,2014-07-14 01:21:00,
2014-07-13 19:27:00,80.6,60.3,29.89,ESE,111,4.0,7.0,50,0.00,,---,0.14,VWS V14.00,2014-07-14 01:27:00,
2014-07-13 19:32:00,80.4,60.1,29.89,ESE,109,3.0,6.0,50,0.00,,---,0.14,VWS V14.00,2014-07-14 01:32:00,
2014-07-13 19:37:00,80.4,60.6,29.89,East,89,2.0,4.0,51,0.00,,---,0.14,VWS V14.00,2014-07-14 01:37:00,
2014-07-13 19:42:00,80.4,60.6,29.89,East,84,2.0,4.0,51,0.00,,---,0.14,VWS V14.00,2014-07-14 01:42:00,
2014-07-13 19:49:00,80.2,61.0,29.89,ENE,63,1.0,5.0,52,0.00,,---,0.14,VWS V14.00,2014-07-14 01:49:00,
2014-07-13 19:55:00,79.8,61.7,29.89,NE,54,4.0,7.0,54,0.00,,---,0.14,VWS V14.00,2014-07-14 01:55:00,
2014-07-13 20:02:00,79.4,61.8,29.89,ENE,75,6.0,7.0,55,0.00,,---,0.14,VWS V14.00,2014-07-14 02:02:00,
2014-07-13 20:07:00,79.2,62.2,29.89,ENE,63,5.0,7.0,56,0.00,,---,0.14,VWS V14.00,2014-07-14 02:07:00,
2014-07-13 20:12:00,78.8,62.3,29.89,ENE,63,6.0,6.0,57,0.00,,---,0.14,VWS V14.00,2014-07-14 02:12:00,
2014-07-13 20:17:00,78.6,62.6,29.89,ENE,61,4.0,7.0,58,0.00,,---,0.14,VWS V14.00,2014-07-14 02:17:00,
2014-07-13 20:22:00,78.4,62.4,29.89,ENE,63,2.0,6.0,58,0.00,,---,0.14,VWS V14.00,2014-07-14 02:22:00,
2014-07-13 20:27:00,78.1,62.6,29.89,ENE,59,4.0,6.0,59,0.00,,---,0.14,VWS V14.00,2014-07-14 02:27:00,
2014-07-13 20:32:00,77.6,62.6,29.89,ENE,61,2.0,4.0,60,0.00,,---,0.14,VWS V14.00,2014-07-14 02:32:00,
2014-07-13 20:37:00,77.4,62.9,29.89,ENE,65,2.0,4.0,61,0.00,,---,0.14,VWS V14.00,2014-07-14 02:37:00,
2014-07-13 20:44:00,77.0,62.5,29.89,ENE,74,3.0,4.0,61,0.00,,---,0.14,VWS V14.00,2014-07-14 02:44:00,
2014-07-13 20:50:00,76.9,62.9,29.89,East,81,2.0,4.0,62,0.00,,---,0.14,VWS V14.00,2014-07-14 02:50:00,
2014-07-13 20:56:00,76.5,63.0,29.89,ENE,74,2.0,3.0,63,0.00,,---,0.14,VWS V14.00,2014-07-14 02:56:00,
2014-07-13 21:02:00,76.2,63.1,29.89,ENE,67,2.0,3.0,64,0.00,,---,0.14,VWS V14.00,2014-07-14 03:02:00,
2014-07-13 21:07:00,75.8,63.2,29.89,ENE,66,2.0,3.0,65,0.00,,---,0.14,VWS V14.00,2014-07-14 03:07:00,
2014-07-13 21:12:00,75.6,63.5,29.89,ENE,67,2.0,4.0,66,0.00,,---,0.14,VWS V14.00,2014-07-14 03:12:00,
2014-07-13 21:17:00,75.4,63.7,29.89,ENE,66,3.0,3.0,67,0.00,,---,0.14,VWS V14.00,2014-07-14 03:17:00,
2014-07-13 21:22:00,75.4,63.7,29.89,ENE,69,3.0,4.0,67,0.00,,---,0.14,VWS V14.00,2014-07-14 03:22:00,
2014-07-13 21:28:00,75.3,64.0,29.89,ENE,69,2.0,5.0,68,0.00,,---,0.14,VWS V14.00,2014-07-14 03:28:00,
2014-07-13 21:33:00,75.2,63.9,29.89,ENE,63,4.0,5.0,68,0.00,,---,0.14,VWS V14.00,2014-07-14 03:33:00,
2014-07-13 21:39:00,75.2,63.9,29.89,ENE,72,2.0,5.0,68,0.00,,---,0.14,VWS V14.00,2014-07-14 03:39:00,
2014-07-13 21:45:00,75.4,64.1,29.89,ENE,57,5.0,6.0,68,0.00,,---,0.14,VWS V14.00,2014-07-14 03:45:00,
2014-07-13 21:51:00,75.5,63.8,29.89,ENE,74,5.0,9.0,67,0.00,,---,0.14,VWS V14.00,2014-07-14 03:51:00,
2014-07-13 21:57:00,75.5,63.4,29.89,NE,53,4.0,9.0,66,0.00,,---,0.14,VWS V14.00,2014-07-14 03:57:00,
2014-07-13 22:01:00,75.5,63.4,29.89,ENE,69,5.0,9.0,66,0.00,,---,0.14,VWS V14.00,2014-07-14 04:01:00,
2014-07-13 22:02:00,75.6,63.5,29.89,ENE,66,9.0,11.0,66,0.00,,---,0.14,VWS V14.00,2014-07-14 04:02:00,
2014-07-13 22:05:00,75.6,63.0,29.89,ENE,75,11.0,13.0,65,0.00,,---,0.14,VWS V14.00,2014-07-14 04:05:00,
2014-07-13 22:07:00,75.7,63.1,29.89,ENE,76,7.0,13.0,65,0.00,,---,0.14,VWS V14.00,2014-07-14 04:07:00,
2014-07-13 22:13:00,75.6,63.5,29.89,East,94,10.0,13.0,66,0.00,,---,0.14,VWS V14.00,2014-07-14 04:13:00,
2014-07-13 22:17:00,75.5,63.4,29.89,East,79,9.0,15.0,66,0.00,,---,0.14,VWS V14.00,2014-07-14 04:17:00,
2014-07-13 22:22:00,75.3,63.2,29.89,East,80,9.0,11.0,66,0.00,,---,0.14,VWS V14.00,2014-07-14 04:22:00,
2014-07-13 22:27:00,75.1,63.0,29.89,ENE,65,11.0,16.0,66,0.00,,---,0.14,VWS V14.00,2014-07-14 04:27:00,
2014-07-13 22:32:00,74.8,62.7,29.89,ENE,78,11.0,16.0,66,0.00,,---,0.14,VWS V14.00,2014-07-14 04:32:00,
2014-07-13 22:34:00,74.7,62.6,29.89,East,81,13.0,13.0,66,0.00,,---,0.14,VWS V14.00,2014-07-14 04:34:00,